sensor_id;sensor_type;location;lat;lon;timestamp;pressure;altitude;pressure_sealevel;temperature;humidity
42859;BME280;28505;56.970;40.998;2023-05-02T00:07:13;100312.63;;;4.94;100.00
42859;BME280;28505;56.970;40.998;2023-05-02T00:12:38;100315.38;;;4.82;100.00
42859;BME280;28505;56.970;40.998;2023-05-02T00:18:02;100343.41;;;4.80;100.00
42859;BME280;28505;56.970;40.998;2023-05-02T00:23:25;100335.72;;;4.66;100.00
42859;BME280;28505;56.970;40.998;2023-05-02T00:28:50;100339.06;;;4.57;100.00
42859;BME280;28505;56.970;40.998;2023-05-02T00:34:15;100353.63;;;4.49;100.00
42859;BME280;28505;56.970;40.998;2023-05-02T00:39:40;100355.06;;;4.40;100.00
42859;BME280;28505;56.970;40.998;2023-05-02T00:45:07;100351.03;;;4.20;100.00
42859;BME280;28505;56.970;40.998;2023-05-02T00:50:34;100359.91;;;4.09;100.00
42859;BME280;28505;56.970;40.998;2023-05-02T00:56:03;100376.63;;;4.05;100.00
42859;BME280;28505;56.970;40.998;2023-05-02T01:07:30;100368.44;;;3.66;100.00
42859;BME280;28505;56.970;40.998;2023-05-02T01:18:46;100376.63;;;3.47;100.00
42859;BME280;28505;56.970;40.998;2023-05-02T01:24:36;100404.66;;;3.50;100.00
42859;BME280;28505;56.970;40.998;2023-05-02T01:30:06;100426.00;;;3.50;100.00
42859;BME280;28505;56.970;40.998;2023-05-02T01:35:34;100422.53;;;3.38;100.00
42859;BME280;28505;56.970;40.998;2023-05-02T01:41:03;100421.00;;;3.30;100.00
42859;BME280;28505;56.970;40.998;2023-05-02T01:46:33;100453.09;;;3.35;100.00
42859;BME280;28505;56.970;40.998;2023-05-02T01:52:02;100437.56;;;3.20;100.00
42859;BME280;28505;56.970;40.998;2023-05-02T01:57:30;100442.13;;;3.08;100.00
42859;BME280;28505;56.970;40.998;2023-05-02T02:02:57;100454.19;;;3.11;100.00
42859;BME280;28505;56.970;40.998;2023-05-02T02:08:24;100470.16;;;3.11;100.00
42859;BME280;28505;56.970;40.998;2023-05-02T02:13:54;100484.16;;;3.06;100.00
42859;BME280;28505;56.970;40.998;2023-05-02T02:19:45;100488.09;;;2.92;100.00
42859;BME280;28505;56.970;40.998;2023-05-02T02:25:11;100501.97;;;2.94;100.00
42859;BME280;28505;56.970;40.998;2023-05-02T02:30:38;100513.44;;;2.94;100.00
42859;BME280;28505;56.970;40.998;2023-05-02T02:36:20;100536.38;;;3.07;100.00
42859;BME280;28505;56.970;40.998;2023-05-02T02:47:28;100540.22;;;3.11;100.00
42859;BME280;28505;56.970;40.998;2023-05-02T02:53:14;100549.47;;;3.20;100.00
42859;BME280;28505;56.970;40.998;2023-05-02T02:58:46;100552.06;;;3.27;100.00
42859;BME280;28505;56.970;40.998;2023-05-02T03:04:21;100556.34;;;3.28;100.00
42859;BME280;28505;56.970;40.998;2023-05-02T03:09:48;100558.56;;;3.31;100.00
42859;BME280;28505;56.970;40.998;2023-05-02T03:15:49;100589.63;;;3.49;100.00
42859;BME280;28505;56.970;40.998;2023-05-02T03:21:25;100580.22;;;3.46;100.00
42859;BME280;28505;56.970;40.998;2023-05-02T03:26:56;100593.56;;;3.58;100.00
42859;BME280;28505;56.970;40.998;2023-05-02T03:32:30;100599.34;;;3.79;100.00
42859;BME280;28505;56.970;40.998;2023-05-02T03:37:57;100606.31;;;4.03;100.00
42859;BME280;28505;56.970;40.998;2023-05-02T03:43:24;100613.72;;;4.13;100.00
42859;BME280;28505;56.970;40.998;2023-05-02T03:48:50;100633.88;;;4.32;100.00
42859;BME280;28505;56.970;40.998;2023-05-02T03:54:15;100620.53;;;4.32;100.00
42859;BME280;28505;56.970;40.998;2023-05-02T03:59:43;100623.28;;;4.49;100.00
42859;BME280;28505;56.970;40.998;2023-05-02T04:05:19;100652.69;;;4.78;100.00
42859;BME280;28505;56.970;40.998;2023-05-02T04:10:45;100657.16;;;4.89;100.00
42859;BME280;28505;56.970;40.998;2023-05-02T04:16:09;100655.94;;;5.08;100.00
42859;BME280;28505;56.970;40.998;2023-05-02T04:21:36;100662.44;;;5.29;100.00
42859;BME280;28505;56.970;40.998;2023-05-02T04:27:02;100665.81;;;5.53;100.00
42859;BME280;28505;56.970;40.998;2023-05-02T04:32:30;100661.09;;;6.11;100.00
42859;BME280;28505;56.970;40.998;2023-05-02T04:37:58;100677.53;;;7.62;100.00
42859;BME280;28505;56.970;40.998;2023-05-02T04:43:23;100672.06;;;8.74;100.00
42859;BME280;28505;56.970;40.998;2023-05-02T04:48:55;100675.13;;;9.03;100.00
42859;BME280;28505;56.970;40.998;2023-05-02T04:54:20;100671.34;;;9.04;100.00
42859;BME280;28505;56.970;40.998;2023-05-02T04:59:46;100677.84;;;9.28;100.00
42859;BME280;28505;56.970;40.998;2023-05-02T05:05:11;100685.44;;;9.88;100.00
42859;BME280;28505;56.970;40.998;2023-05-02T05:10:38;100700.44;;;10.50;100.00
42859;BME280;28505;56.970;40.998;2023-05-02T05:16:08;100702.47;;;10.84;100.00
42859;BME280;28505;56.970;40.998;2023-05-02T05:21:33;100708.75;;;11.23;100.00
42859;BME280;28505;56.970;40.998;2023-05-02T05:27:02;100707.59;;;11.35;100.00
42859;BME280;28505;56.970;40.998;2023-05-02T05:32:27;100713.94;;;11.54;100.00
42859;BME280;28505;56.970;40.998;2023-05-02T05:37:53;100724.84;;;12.12;100.00
42859;BME280;28505;56.970;40.998;2023-05-02T05:43:19;100717.81;;;12.16;100.00
42859;BME280;28505;56.970;40.998;2023-05-02T05:48:46;100723.28;;;12.06;100.00
42859;BME280;28505;56.970;40.998;2023-05-02T05:54:12;100718.72;;;12.31;100.00
42859;BME280;28505;56.970;40.998;2023-05-02T05:59:37;100710.28;;;12.37;100.00
42859;BME280;28505;56.970;40.998;2023-05-02T06:05:04;100726.56;;;12.56;100.00
42859;BME280;28505;56.970;40.998;2023-05-02T06:10:30;100733.31;;;12.83;100.00
42859;BME280;28505;56.970;40.998;2023-05-02T06:16:00;100736.00;;;12.83;100.00
42859;BME280;28505;56.970;40.998;2023-05-02T06:21:28;100737.72;;;12.74;100.00
42859;BME280;28505;56.970;40.998;2023-05-02T06:26:55;100740.19;;;12.94;100.00
42859;BME280;28505;56.970;40.998;2023-05-02T06:32:20;100744.22;;;12.97;100.00
42859;BME280;28505;56.970;40.998;2023-05-02T06:37:44;100749.66;;;13.16;100.00
42859;BME280;28505;56.970;40.998;2023-05-02T06:43:09;100742.53;;;13.01;100.00
42859;BME280;28505;56.970;40.998;2023-05-02T06:48:36;100737.16;;;13.20;100.00
42859;BME280;28505;56.970;40.998;2023-05-02T06:54:00;100743.16;;;13.17;100.00
42859;BME280;28505;56.970;40.998;2023-05-02T06:59:25;100753.00;;;13.07;100.00
42859;BME280;28505;56.970;40.998;2023-05-02T07:04:50;100737.91;;;12.82;100.00
42859;BME280;28505;56.970;40.998;2023-05-02T07:10:16;100744.53;;;12.95;100.00
42859;BME280;28505;56.970;40.998;2023-05-02T07:15:43;100752.81;;;12.80;100.00
42859;BME280;28505;56.970;40.998;2023-05-02T07:21:08;100758.22;;;12.80;88.32
42859;BME280;28505;56.970;40.998;2023-05-02T07:26:33;100752.13;;;12.93;100.00
42859;BME280;28505;56.970;40.998;2023-05-02T07:31:59;100759.03;;;13.23;100.00
42859;BME280;28505;56.970;40.998;2023-05-02T07:37:25;100736.50;;;12.85;82.20
42859;BME280;28505;56.970;40.998;2023-05-02T07:42:51;100742.34;;;12.73;96.18
42859;BME280;28505;56.970;40.998;2023-05-02T07:48:18;100762.47;;;12.62;88.35
42859;BME280;28505;56.970;40.998;2023-05-02T07:53:43;100762.00;;;12.55;94.14
42859;BME280;28505;56.970;40.998;2023-05-02T07:59:09;100756.47;;;12.41;87.47
42859;BME280;28505;56.970;40.998;2023-05-02T08:04:35;100758.75;;;12.82;89.49
42859;BME280;28505;56.970;40.998;2023-05-02T08:09:57;100755.69;;;12.88;100.00
42859;BME280;28505;56.970;40.998;2023-05-02T08:15:24;100762.38;;;12.96;91.11
42859;BME280;28505;56.970;40.998;2023-05-02T08:20:48;100763.84;;;13.31;96.12
42859;BME280;28505;56.970;40.998;2023-05-02T08:26:13;100760.91;;;13.28;81.09
42859;BME280;28505;56.970;40.998;2023-05-02T08:31:39;100760.69;;;13.43;92.34
42859;BME280;28505;56.970;40.998;2023-05-02T08:37:09;100750.66;;;13.44;86.16
42859;BME280;28505;56.970;40.998;2023-05-02T08:42:34;100762.31;;;13.44;73.19
42859;BME280;28505;56.970;40.998;2023-05-02T08:47:57;100751.03;;;13.75;80.74
42859;BME280;28505;56.970;40.998;2023-05-02T08:53:22;100757.25;;;13.56;77.03
42859;BME280;28505;56.970;40.998;2023-05-02T08:58:46;100749.06;;;13.62;78.20
42859;BME280;28505;56.970;40.998;2023-05-02T09:04:09;100749.75;;;13.86;74.90
42859;BME280;28505;56.970;40.998;2023-05-02T09:09:33;100758.03;;;13.95;79.74
42859;BME280;28505;56.970;40.998;2023-05-02T09:15:15;100752.16;;;14.07;72.74
42859;BME280;28505;56.970;40.998;2023-05-02T09:20:44;100739.50;;;14.16;87.91
42859;BME280;28505;56.970;40.998;2023-05-02T09:26:18;100747.53;;;14.07;66.22
42859;BME280;28505;56.970;40.998;2023-05-02T09:31:45;100737.47;;;14.08;76.51
42859;BME280;28505;56.970;40.998;2023-05-02T09:37:35;100743.63;;;14.13;78.59
42859;BME280;28505;56.970;40.998;2023-05-02T09:42:58;100734.91;;;14.16;81.22
42859;BME280;28505;56.970;40.998;2023-05-02T09:48:20;100723.34;;;14.24;73.04
42859;BME280;28505;56.970;40.998;2023-05-02T09:53:43;100729.28;;;14.13;75.23
42859;BME280;28505;56.970;40.998;2023-05-02T09:59:15;100726.22;;;14.00;78.12
42859;BME280;28505;56.970;40.998;2023-05-02T10:04:38;100704.72;;;13.90;71.29
42859;BME280;28505;56.970;40.998;2023-05-02T10:10:02;100714.44;;;13.91;75.73
42859;BME280;28505;56.970;40.998;2023-05-02T10:15:29;100706.94;;;13.69;71.70
42859;BME280;28505;56.970;40.998;2023-05-02T10:20:56;100711.31;;;13.84;78.26
42859;BME280;28505;56.970;40.998;2023-05-02T10:26:20;100700.38;;;13.89;82.66
42859;BME280;28505;56.970;40.998;2023-05-02T10:31:45;100692.44;;;13.93;74.30
42859;BME280;28505;56.970;40.998;2023-05-02T10:37:11;100696.41;;;14.00;75.98
42859;BME280;28505;56.970;40.998;2023-05-02T10:42:38;100695.94;;;13.79;60.41
42859;BME280;28505;56.970;40.998;2023-05-02T10:48:15;100681.56;;;13.79;66.60
42859;BME280;28505;56.970;40.998;2023-05-02T10:53:40;100687.03;;;13.93;62.39
42859;BME280;28505;56.970;40.998;2023-05-02T10:59:28;100683.66;;;14.01;65.43
42859;BME280;28505;56.970;40.998;2023-05-02T11:05:04;100693.31;;;14.21;67.03
42859;BME280;28505;56.970;40.998;2023-05-02T12:51:38;100640.06;;;14.25;46.96
42859;BME280;28505;56.970;40.998;2023-05-02T12:57:02;100632.84;;;14.34;47.31
42859;BME280;28505;56.970;40.998;2023-05-02T13:02:25;100634.97;;;14.37;48.31
42859;BME280;28505;56.970;40.998;2023-05-02T13:07:48;100628.34;;;14.43;44.88
42859;BME280;28505;56.970;40.998;2023-05-02T13:13:11;100635.50;;;14.53;45.55
42859;BME280;28505;56.970;40.998;2023-05-02T13:18:33;100634.47;;;14.63;45.10
42859;BME280;28505;56.970;40.998;2023-05-02T13:23:56;100629.94;;;14.58;44.52
42859;BME280;28505;56.970;40.998;2023-05-02T13:29:21;100640.13;;;14.52;44.86
42859;BME280;28505;56.970;40.998;2023-05-02T13:34:43;100623.41;;;14.45;45.96
42859;BME280;28505;56.970;40.998;2023-05-02T13:40:06;100627.94;;;14.50;45.26
42859;BME280;28505;56.970;40.998;2023-05-02T13:45:27;100621.94;;;14.53;44.49
42859;BME280;28505;56.970;40.998;2023-05-02T13:50:49;100624.13;;;14.51;43.54
42859;BME280;28505;56.970;40.998;2023-05-02T13:56:11;100622.78;;;14.48;44.86
42859;BME280;28505;56.970;40.998;2023-05-02T14:01:35;100616.28;;;14.49;45.16
42859;BME280;28505;56.970;40.998;2023-05-02T14:06:57;100620.19;;;14.43;45.10
42859;BME280;28505;56.970;40.998;2023-05-02T14:12:19;100605.31;;;14.41;44.66
42859;BME280;28505;56.970;40.998;2023-05-02T14:17:41;100606.31;;;14.45;45.27
42859;BME280;28505;56.970;40.998;2023-05-02T14:23:04;100600.69;;;14.41;45.02
42859;BME280;28505;56.970;40.998;2023-05-02T14:28:28;100597.69;;;14.43;45.63
42859;BME280;28505;56.970;40.998;2023-05-02T14:33:50;100590.88;;;14.45;45.43
42859;BME280;28505;56.970;40.998;2023-05-02T14:39:17;100595.47;;;14.45;43.99
42859;BME280;28505;56.970;40.998;2023-05-02T14:44:39;100590.03;;;14.45;44.12
42859;BME280;28505;56.970;40.998;2023-05-02T14:50:04;100594.06;;;14.47;44.99
42859;BME280;28505;56.970;40.998;2023-05-02T14:55:27;100593.38;;;14.56;45.80
42859;BME280;28505;56.970;40.998;2023-05-02T15:00:49;100585.25;;;14.56;45.89
42859;BME280;28505;56.970;40.998;2023-05-02T15:06:13;100585.34;;;14.50;46.41
42859;BME280;28505;56.970;40.998;2023-05-02T15:11:36;100587.53;;;14.48;46.22
42859;BME280;28505;56.970;40.998;2023-05-02T15:16:59;100588.34;;;14.49;46.77
42859;BME280;28505;56.970;40.998;2023-05-02T15:22:24;100581.50;;;14.51;47.35
42859;BME280;28505;56.970;40.998;2023-05-02T15:27:46;100574.19;;;14.38;47.27
42859;BME280;28505;56.970;40.998;2023-05-02T15:33:08;100573.09;;;14.12;47.79
42859;BME280;28505;56.970;40.998;2023-05-02T15:38:30;100584.00;;;13.79;48.06
42859;BME280;28505;56.970;40.998;2023-05-02T15:43:55;100575.13;;;13.46;48.32
42859;BME280;28505;56.970;40.998;2023-05-02T15:49:17;100574.78;;;13.33;47.37
42859;BME280;28505;56.970;40.998;2023-05-02T15:54:39;100571.72;;;13.21;47.37
42859;BME280;28505;56.970;40.998;2023-05-02T16:00:01;100576.56;;;13.05;47.65
42859;BME280;28505;56.970;40.998;2023-05-02T16:05:26;100582.78;;;12.87;47.09
42859;BME280;28505;56.970;40.998;2023-05-02T16:10:49;100584.03;;;12.76;47.04
42859;BME280;28505;56.970;40.998;2023-05-02T16:16:12;100577.44;;;12.44;47.96
42859;BME280;28505;56.970;40.998;2023-05-02T16:21:34;100584.28;;;12.12;48.64
42859;BME280;28505;56.970;40.998;2023-05-02T16:26:57;100569.53;;;11.76;49.40
42859;BME280;28505;56.970;40.998;2023-05-02T16:32:19;100582.81;;;11.43;50.57
42859;BME280;28505;56.970;40.998;2023-05-02T16:37:44;100578.00;;;11.00;51.68
42859;BME280;28505;56.970;40.998;2023-05-02T16:43:07;100577.72;;;10.63;52.59
42859;BME280;28505;56.970;40.998;2023-05-02T16:48:30;100577.06;;;10.31;53.11
42859;BME280;28505;56.970;40.998;2023-05-02T16:53:52;100582.28;;;9.97;54.02
42859;BME280;28505;56.970;40.998;2023-05-02T16:59:15;100580.44;;;9.62;54.71
42859;BME280;28505;56.970;40.998;2023-05-02T17:04:37;100578.31;;;9.28;55.38
42859;BME280;28505;56.970;40.998;2023-05-02T17:09:59;100576.94;;;8.95;56.43
42859;BME280;28505;56.970;40.998;2023-05-02T17:15:23;100578.50;;;8.65;57.02
42859;BME280;28505;56.970;40.998;2023-05-02T17:20:46;100577.56;;;8.34;58.01
42859;BME280;28505;56.970;40.998;2023-05-02T17:26:09;100579.34;;;8.08;59.01
42859;BME280;28505;56.970;40.998;2023-05-02T17:31:37;100577.59;;;7.82;59.82
42859;BME280;28505;56.970;40.998;2023-05-02T17:36:59;100566.13;;;7.54;60.07
42859;BME280;28505;56.970;40.998;2023-05-02T17:42:21;100571.59;;;7.32;61.01
42859;BME280;28505;56.970;40.998;2023-05-02T17:47:42;100578.97;;;7.15;62.06
42859;BME280;28505;56.970;40.998;2023-05-02T17:53:04;100579.03;;;6.93;64.09
42859;BME280;28505;56.970;40.998;2023-05-02T17:58:26;100561.94;;;6.72;64.76
42859;BME280;28505;56.970;40.998;2023-05-02T18:03:48;100561.53;;;6.58;65.16
42859;BME280;28505;56.970;40.998;2023-05-02T18:09:10;100555.78;;;6.44;65.32
42859;BME280;28505;56.970;40.998;2023-05-02T18:14:33;100562.00;;;6.28;66.00
42859;BME280;28505;56.970;40.998;2023-05-02T18:19:55;100553.47;;;6.09;66.58
42859;BME280;28505;56.970;40.998;2023-05-02T18:25:16;100550.00;;;5.92;67.19
42859;BME280;28505;56.970;40.998;2023-05-02T18:30:39;100551.66;;;5.76;67.90
42859;BME280;28505;56.970;40.998;2023-05-02T18:36:01;100546.09;;;5.60;68.45
42859;BME280;28505;56.970;40.998;2023-05-02T18:41:22;100548.53;;;5.45;69.27
42859;BME280;28505;56.970;40.998;2023-05-02T18:46:44;100550.47;;;5.33;69.80
42859;BME280;28505;56.970;40.998;2023-05-02T18:52:06;100531.13;;;5.26;70.94
42859;BME280;28505;56.970;40.998;2023-05-02T18:57:28;100532.69;;;5.22;72.09
42859;BME280;28505;56.970;40.998;2023-05-02T19:02:52;100532.03;;;5.14;72.46
42859;BME280;28505;56.970;40.998;2023-05-02T19:08:14;100524.88;;;5.03;73.06
42859;BME280;28505;56.970;40.998;2023-05-02T19:13:36;100521.56;;;4.96;73.82
42859;BME280;28505;56.970;40.998;2023-05-02T19:19:01;100516.63;;;4.88;74.59
42859;BME280;28505;56.970;40.998;2023-05-02T19:24:23;100509.97;;;4.74;75.06
42859;BME280;28505;56.970;40.998;2023-05-02T19:29:45;100508.19;;;4.62;76.02
42859;BME280;28505;56.970;40.998;2023-05-02T19:35:07;100507.84;;;4.59;76.90
42859;BME280;28505;56.970;40.998;2023-05-02T19:40:32;100503.94;;;4.50;78.00
42859;BME280;28505;56.970;40.998;2023-05-02T19:45:53;100500.97;;;4.34;79.54
42859;BME280;28505;56.970;40.998;2023-05-02T19:51:17;100490.59;;;4.21;80.62
42859;BME280;28505;56.970;40.998;2023-05-02T19:56:41;100482.25;;;4.17;83.05
42859;BME280;28505;56.970;40.998;2023-05-02T20:02:03;100482.16;;;4.12;84.77
42859;BME280;28505;56.970;40.998;2023-05-02T20:07:26;100487.66;;;3.94;86.68
42859;BME280;28505;56.970;40.998;2023-05-02T20:12:48;100476.47;;;3.80;87.19
42859;BME280;28505;56.970;40.998;2023-05-02T20:18:10;100478.59;;;3.66;87.68
42859;BME280;28505;56.970;40.998;2023-05-02T20:23:32;100471.97;;;3.57;88.28
42859;BME280;28505;56.970;40.998;2023-05-02T20:28:55;100483.25;;;3.47;89.35
42859;BME280;28505;56.970;40.998;2023-05-02T20:34:19;100488.09;;;3.39;89.98
42859;BME280;28505;56.970;40.998;2023-05-02T20:39:41;100478.81;;;3.29;92.17
42859;BME280;28505;56.970;40.998;2023-05-02T20:45:03;100478.38;;;3.21;93.45
42859;BME280;28505;56.970;40.998;2023-05-02T20:50:27;100482.63;;;3.10;93.85
42859;BME280;28505;56.970;40.998;2023-05-02T20:55:49;100477.31;;;2.98;94.17
42859;BME280;28505;56.970;40.998;2023-05-02T21:01:11;100483.22;;;2.89;94.62
42859;BME280;28505;56.970;40.998;2023-05-02T21:06:33;100483.31;;;2.82;95.94
42859;BME280;28505;56.970;40.998;2023-05-02T21:11:55;100481.78;;;2.74;97.28
42859;BME280;28505;56.970;40.998;2023-05-02T21:17:17;100476.34;;;2.69;99.11
42859;BME280;28505;56.970;40.998;2023-05-02T21:22:39;100478.31;;;2.62;100.00
42859;BME280;28505;56.970;40.998;2023-05-02T21:28:03;100479.41;;;2.54;100.00
42859;BME280;28505;56.970;40.998;2023-05-02T21:33:26;100471.78;;;2.46;100.00
42859;BME280;28505;56.970;40.998;2023-05-02T21:38:48;100473.28;;;2.42;100.00
42859;BME280;28505;56.970;40.998;2023-05-02T21:44:10;100468.97;;;2.41;100.00
42859;BME280;28505;56.970;40.998;2023-05-02T21:49:34;100469.22;;;2.40;100.00
42859;BME280;28505;56.970;40.998;2023-05-02T21:54:56;100463.09;;;2.39;100.00
42859;BME280;28505;56.970;40.998;2023-05-02T22:00:19;100469.88;;;2.35;100.00
42859;BME280;28505;56.970;40.998;2023-05-02T22:05:41;100457.72;;;2.27;100.00
42859;BME280;28505;56.970;40.998;2023-05-02T22:11:06;100457.56;;;2.22;100.00
42859;BME280;28505;56.970;40.998;2023-05-02T22:16:31;100474.00;;;2.19;100.00
42859;BME280;28505;56.970;40.998;2023-05-02T22:21:53;100465.06;;;2.14;100.00
42859;BME280;28505;56.970;40.998;2023-05-02T22:27:17;100469.44;;;2.08;100.00
42859;BME280;28505;56.970;40.998;2023-05-02T22:32:39;100459.03;;;2.06;100.00
42859;BME280;28505;56.970;40.998;2023-05-02T22:38:02;100464.56;;;2.05;100.00
42859;BME280;28505;56.970;40.998;2023-05-02T22:43:24;100460.41;;;2.09;100.00
42859;BME280;28505;56.970;40.998;2023-05-02T22:48:47;100463.34;;;2.19;100.00
42859;BME280;28505;56.970;40.998;2023-05-02T22:54:09;100457.50;;;2.29;100.00
42859;BME280;28505;56.970;40.998;2023-05-02T22:59:31;100447.47;;;2.43;100.00
42859;BME280;28505;56.970;40.998;2023-05-02T23:04:53;100448.97;;;2.50;100.00
42859;BME280;28505;56.970;40.998;2023-05-02T23:10:15;100447.28;;;2.56;100.00
42859;BME280;28505;56.970;40.998;2023-05-02T23:15:37;100448.44;;;2.60;100.00
42859;BME280;28505;56.970;40.998;2023-05-02T23:21:01;100443.09;;;2.60;100.00
42859;BME280;28505;56.970;40.998;2023-05-02T23:26:24;100430.84;;;2.59;100.00
42859;BME280;28505;56.970;40.998;2023-05-02T23:31:47;100432.13;;;2.68;100.00
42859;BME280;28505;56.970;40.998;2023-05-02T23:37:10;100438.03;;;2.70;100.00
42859;BME280;28505;56.970;40.998;2023-05-02T23:42:33;100435.38;;;2.70;100.00
42859;BME280;28505;56.970;40.998;2023-05-02T23:47:56;100425.88;;;2.63;100.00
42859;BME280;28505;56.970;40.998;2023-05-02T23:53:18;100417.84;;;2.51;100.00
42859;BME280;28505;56.970;40.998;2023-05-02T23:58:40;100426.19;;;2.43;100.00
